This is the latest recevied weather packets stored in our database for station/object DO1SC. If no packets are shown the sender has not sent any weather packets the latest 10 day(s).
| Time | Temp. | Humidity | Pressure | Rain* | Wind** | Luminosity | Snow |
|---|---|---|---|---|---|---|---|
| 1777694119 | 8.33° C | 66% | 1025.1 hPa | - | - | 4 W/m² | - |
| 1777693530 | 8.33° C | 66% | 1025.2 hPa | - | - | 2 W/m² | - |
| 1777692920 | 8.33° C | 66% | 1025.3 hPa | - | - | 0 W/m² | - |
| 1777692333 | 8.89° C | 64% | 1025.3 hPa | - | - | 0 W/m² | - |
| 1777691724 | 9.44° C | 62% | 1025.3 hPa | - | - | 0 W/m² | - |
| 1777691135 | 10° C | 59% | 1025.3 hPa | - | - | 0 W/m² | - |
| 1777690527 | 10° C | 58% | 1025.3 hPa | - | - | 0 W/m² | - |
| 1777689918 | 9.44° C | 62% | 1025.5 hPa | - | - | 0 W/m² | - |
| 1777689330 | 8.89° C | 63% | 1025.5 hPa | - | - | 0 W/m² | - |
| 1777688721 | 8.89° C | 64% | 1025.5 hPa | - | - | 0 W/m² | - |
| 1777688133 | 8.89° C | 65% | 1025.5 hPa | - | - | 0 W/m² | - |
| 1777687525 | 8.89° C | 65% | 1025.5 hPa | - | - | 0 W/m² | - |
| 1777686916 | 8.89° C | 65% | 1025.6 hPa | - | - | 0 W/m² | - |
| 1777686328 | 8.89° C | 65% | 1025.7 hPa | - | - | 0 W/m² | - |
| 1777685720 | 8.89° C | 67% | 1025.7 hPa | - | - | 0 W/m² | - |
| 1777685132 | 8.89° C | 67% | 1025.8 hPa | - | - | 0 W/m² | - |
| 1777684526 | 8.33° C | 71% | 1025.9 hPa | - | - | 0 W/m² | - |
| 1777683935 | 8.33° C | 71% | 1026 hPa | - | - | 0 W/m² | - |
| 1777683329 | 8.33° C | 72% | 1026.1 hPa | - | - | 0 W/m² | - |
| 1777682722 | 8.33° C | 72% | 1026.1 hPa | - | - | 0 W/m² | - |
| 1777682132 | 8.33° C | 73% | 1026.1 hPa | - | - | 0 W/m² | - |
| 1777681521 | 8.33° C | 73% | 1026.3 hPa | - | - | 0 W/m² | - |
| 1777680933 | 9.44° C | 71% | 1026.3 hPa | - | - | 0 W/m² | - |
| 1777680324 | 9.44° C | 71% | 1026.5 hPa | - | - | 0 W/m² | - |
| 1777679735 | 8.89° C | 72% | 1026.5 hPa | - | - | 0 W/m² | - |
* Rain since midnight (hover to see other rain measurements)
** Current wind speed in m/s (hover to see current wind gust speed)